createdAt,value
2019-02-02T00:02:26.318Z,97938.86
2019-02-02T00:06:30.676Z,97934.52
2019-02-02T00:10:35.063Z,97941.00
2019-02-02T00:14:39.536Z,97948.00
2019-02-02T00:18:43.883Z,97956.69
2019-02-02T00:22:48.296Z,97957.13
2019-02-02T00:26:52.600Z,97957.97
2019-02-02T00:30:56.870Z,97965.79
2019-02-02T00:35:01.293Z,97963.12
2019-02-02T00:39:09.968Z,97962.69
2019-02-02T00:43:14.338Z,97968.29
2019-02-02T00:47:18.627Z,97955.61
2019-02-02T00:51:22.952Z,97952.99
2019-02-02T00:55:27.468Z,97949.02
2019-02-02T00:59:31.767Z,97948.14
2019-02-02T01:03:35.996Z,97948.13
2019-02-02T01:07:40.402Z,97942.00
2019-02-02T01:11:45.044Z,97945.89
2019-02-02T01:15:49.368Z,97946.73
2019-02-02T01:19:53.674Z,97965.45
2019-02-02T01:23:57.940Z,97961.46
2019-02-02T01:28:05.276Z,97950.98
2019-02-02T01:32:08.312Z,97953.98
2019-02-02T01:36:12.593Z,97955.73
2019-02-02T01:40:18.816Z,97943.52
2019-02-02T01:44:23.113Z,97933.52
2019-02-02T01:48:27.365Z,97929.61
2019-02-02T01:52:31.695Z,97941.34
2019-02-02T01:56:36.028Z,97941.33
2019-02-02T02:00:40.290Z,97938.62
2019-02-02T02:04:44.561Z,97939.41
2019-02-02T02:08:48.884Z,97933.68
2019-02-02T02:12:53.258Z,97940.97
2019-02-02T02:16:57.508Z,97926.09
2019-02-02T02:21:01.802Z,97927.84
2019-02-02T02:25:08.025Z,97926.09
2019-02-02T02:29:12.594Z,97914.02
2019-02-02T02:33:16.910Z,97905.43
2019-02-02T02:37:21.182Z,97905.09
2019-02-02T02:41:25.477Z,97904.64
2019-02-02T02:45:29.765Z,97906.75
2019-02-02T02:49:34.034Z,97914.06
2019-02-02T02:53:38.322Z,97911.72
2019-02-02T02:57:42.706Z,97914.09
2019-02-02T03:01:47.032Z,97915.89
2019-02-02T03:05:51.304Z,97918.57
2019-02-02T03:09:55.682Z,97915.53
2019-02-02T03:14:00.010Z,97895.51
2019-02-02T03:18:04.356Z,97899.16
2019-02-02T03:22:08.753Z,97899.64
2019-02-02T03:26:13.042Z,97904.63
2019-02-02T03:30:21.054Z,97912.73
2019-02-02T03:34:25.297Z,97907.32
2019-02-02T03:38:29.570Z,97894.01
2019-02-02T03:42:33.816Z,97911.80
2019-02-02T03:46:38.133Z,97919.16
2019-02-02T03:50:42.472Z,97907.30
2019-02-02T03:54:46.820Z,97900.66
2019-02-02T03:58:51.102Z,97902.77
2019-02-02T04:02:55.432Z,97906.55
2019-02-02T04:06:59.728Z,97897.64
2019-02-02T04:11:04.109Z,97902.71
2019-02-02T04:15:08.795Z,97904.27
2019-02-02T04:19:13.098Z,97898.00
2019-02-02T04:23:17.399Z,97887.77
2019-02-02T04:27:23.751Z,97897.35
2019-02-02T04:31:28.097Z,97889.22
2019-02-02T04:35:32.361Z,97876.83
2019-02-02T04:39:36.614Z,97877.62
2019-02-02T04:43:40.886Z,97878.47
2019-02-02T04:47:45.111Z,97874.96
2019-02-02T04:51:49.368Z,97875.35
2019-02-02T04:55:53.611Z,97883.73
2019-02-02T04:59:57.895Z,97877.66
2019-02-02T05:04:02.123Z,97865.41
2019-02-02T05:08:06.378Z,97867.25
2019-02-02T05:12:11.537Z,97862.95
2019-02-02T05:16:15.769Z,97861.17
2019-02-02T05:20:20.100Z,97863.27
2019-02-02T05:24:24.358Z,97875.84
2019-02-02T05:28:28.915Z,97867.93
2019-02-02T05:32:33.207Z,97878.83
2019-02-02T05:36:37.456Z,97883.63
2019-02-02T05:40:41.734Z,97874.86
2019-02-02T05:44:46.007Z,97882.28
2019-02-02T05:48:50.303Z,97882.77
2019-02-02T05:52:54.534Z,97889.73
2019-02-02T05:56:58.791Z,97888.03
2019-02-02T06:01:03.080Z,97893.19
2019-02-02T06:05:07.453Z,97904.48
2019-02-02T06:09:11.790Z,97917.55
2019-02-02T06:13:16.015Z,97928.06
2019-02-02T06:17:20.405Z,97928.98
2019-02-02T06:21:24.671Z,97931.61
2019-02-02T06:25:28.947Z,97926.72
2019-02-02T06:29:33.231Z,97912.33
2019-02-02T06:33:37.496Z,97899.69
2019-02-02T06:37:41.798Z,97889.67
2019-02-02T06:41:46.029Z,97912.13
2019-02-02T06:45:50.328Z,97915.41
2019-02-02T06:49:54.614Z,97920.49
2019-02-02T06:53:58.878Z,97928.77
2019-02-02T06:58:03.931Z,97917.86
2019-02-02T07:02:08.356Z,97917.97
2019-02-02T07:06:12.612Z,97928.55
2019-02-02T07:10:21.734Z,97932.62
2019-02-02T07:14:26.095Z,97934.80
2019-02-02T07:18:30.415Z,97943.33
2019-02-02T07:22:34.948Z,97937.69
2019-02-02T07:26:39.324Z,97930.36
2019-02-02T07:30:43.575Z,97909.33
2019-02-02T07:34:47.881Z,97937.29
2019-02-02T07:38:52.137Z,97919.20
2019-02-02T07:42:56.625Z,97926.53
2019-02-02T07:47:00.931Z,97929.02
2019-02-02T07:51:05.479Z,97924.47
2019-02-02T07:55:10.884Z,97923.88
2019-02-02T07:59:15.212Z,97926.43
2019-02-02T08:03:19.799Z,97932.58
2019-02-02T08:07:24.103Z,97926.92
2019-02-02T08:11:28.386Z,97931.37
2019-02-02T08:15:33.277Z,97953.27
2019-02-02T08:19:37.551Z,97964.24
2019-02-02T08:23:41.827Z,97983.11
2019-02-02T08:27:46.058Z,98002.44
2019-02-02T08:31:50.434Z,98002.48
2019-02-02T08:35:54.737Z,98010.80
2019-02-02T08:39:59.044Z,98021.25
2019-02-02T08:44:03.369Z,98029.06
2019-02-02T08:48:07.707Z,98029.89
2019-02-02T08:52:12.001Z,98016.73
2019-02-02T08:56:16.259Z,98021.86
2019-02-02T09:00:21.016Z,98029.33
2019-02-02T09:04:25.407Z,98034.95
2019-02-02T09:08:29.654Z,98029.13
2019-02-02T09:12:33.921Z,98028.55
2019-02-02T09:16:38.209Z,98032.41
2019-02-02T09:20:42.506Z,98035.81
2019-02-02T09:24:46.792Z,98021.66
2019-02-02T09:28:51.181Z,98020.63
2019-02-02T09:32:55.553Z,98020.63
2019-02-02T09:36:59.840Z,98011.73
2019-02-02T09:41:04.321Z,98005.63
2019-02-02T09:45:10.235Z,98007.68
2019-02-02T09:49:14.534Z,98000.56
2019-02-02T09:53:18.851Z,97993.72
2019-02-02T09:57:23.325Z,97976.07
2019-02-02T10:01:28.201Z,97980.37
2019-02-02T10:05:32.697Z,97983.73
2019-02-02T10:09:37.080Z,97972.20
2019-02-02T10:13:41.788Z,97958.14
2019-02-02T10:17:46.149Z,97962.12
2019-02-02T10:21:50.553Z,97947.19
2019-02-02T10:25:54.851Z,97942.34
2019-02-02T10:29:59.130Z,97941.33
2019-02-02T10:34:03.536Z,97940.33
2019-02-02T10:38:07.974Z,97935.20
2019-02-02T10:42:12.514Z,97942.92
2019-02-02T10:46:16.823Z,97947.56
2019-02-02T10:50:21.672Z,97932.45
2019-02-02T10:54:25.978Z,97932.45
2019-02-02T10:58:30.275Z,97926.89
2019-02-02T11:02:34.629Z,97943.03
2019-02-02T11:06:39.064Z,97940.94
2019-02-02T11:10:43.454Z,97962.16
2019-02-02T11:14:47.829Z,97952.22
2019-02-02T11:18:52.187Z,97956.33
2019-02-02T11:22:56.572Z,97963.92
2019-02-02T11:27:01.123Z,97951.63
2019-02-02T11:31:05.611Z,97954.73
2019-02-02T11:35:11.519Z,97960.89
2019-02-02T11:39:15.823Z,97955.08
2019-02-02T11:43:20.183Z,97935.72
2019-02-02T11:47:24.515Z,97931.47
2019-02-02T11:51:28.775Z,97928.59
2019-02-02T11:55:33.053Z,97929.00
2019-02-02T11:59:37.405Z,97936.78
2019-02-02T12:03:41.676Z,97943.81
2019-02-02T12:07:46.245Z,97949.95
2019-02-02T12:11:50.550Z,97960.02
2019-02-02T12:15:54.983Z,97957.24
2019-02-02T12:19:59.477Z,97954.02
2019-02-02T12:24:13.282Z,97974.59
2019-02-02T12:28:09.788Z,97965.23
2019-02-02T12:32:25.904Z,97988.58
2019-02-02T12:36:20.518Z,97993.20
2019-02-02T12:40:25.359Z,97975.01
2019-02-02T12:44:29.655Z,97988.97
2019-02-02T12:48:34.080Z,97990.45
2019-02-02T12:52:38.506Z,97999.98
2019-02-02T12:56:42.810Z,97989.59
2019-02-02T13:00:47.084Z,97990.34
2019-02-02T13:04:51.325Z,97996.37
2019-02-02T13:08:55.657Z,97994.99
2019-02-02T13:13:00.046Z,97986.41
2019-02-02T13:17:04.395Z,97976.22
2019-02-02T13:21:08.682Z,97963.03
2019-02-02T13:25:14.856Z,97980.53
2019-02-02T13:29:19.175Z,97982.30
2019-02-02T13:33:23.470Z,97988.64
2019-02-02T13:37:27.839Z,97995.87
2019-02-02T13:41:32.154Z,97991.34
2019-02-02T13:45:36.468Z,98002.60
2019-02-02T13:49:40.734Z,98017.95
2019-02-02T13:53:45.062Z,98025.41
2019-02-02T13:57:49.329Z,98036.78
2019-02-02T14:01:53.741Z,98039.38
2019-02-02T14:05:58.052Z,98039.97
2019-02-02T14:10:02.781Z,98045.84
2019-02-02T14:14:07.084Z,98034.91
2019-02-02T14:18:11.471Z,98035.84
2019-02-02T14:22:15.801Z,98038.67
2019-02-02T14:26:20.111Z,98038.75
2019-02-02T14:30:25.627Z,98038.02
2019-02-02T14:34:39.932Z,98053.16
2019-02-02T14:38:35.963Z,98057.19
2019-02-02T14:42:40.405Z,98050.42
2019-02-02T14:46:44.710Z,98058.09
2019-02-02T14:50:48.995Z,98059.52
2019-02-02T14:54:53.276Z,98062.61
2019-02-02T14:58:57.605Z,98060.95
2019-02-02T15:03:03.718Z,98057.52
2019-02-02T15:07:08.306Z,98049.64
2019-02-02T15:11:12.577Z,98053.24
2019-02-02T15:15:16.885Z,98053.19
2019-02-02T15:19:21.148Z,98062.01
2019-02-02T15:23:25.474Z,98081.44
2019-02-02T15:27:29.802Z,98094.66
2019-02-02T15:31:34.990Z,98113.71
2019-02-02T15:35:39.276Z,98118.06
2019-02-02T15:39:43.553Z,98127.16
2019-02-02T15:43:47.874Z,98127.63
2019-02-02T15:47:52.210Z,98120.66
2019-02-02T15:51:58.763Z,98123.44
2019-02-02T15:56:03.010Z,98132.39
2019-02-02T16:00:11.216Z,98140.80
2019-02-02T16:04:15.484Z,98142.75
2019-02-02T16:08:20.127Z,98144.00
2019-02-02T16:12:24.403Z,98159.51
2019-02-02T16:16:28.846Z,98167.22
2019-02-02T16:20:35.537Z,98166.98
2019-02-02T16:24:39.875Z,98172.93
2019-02-02T16:28:44.305Z,98178.48
2019-02-02T16:32:48.670Z,98177.73
2019-02-02T16:36:53.041Z,98200.75
2019-02-02T16:40:57.310Z,98203.92
2019-02-02T16:45:01.574Z,98225.17
2019-02-02T16:49:05.842Z,98241.80
2019-02-02T16:53:10.102Z,98257.71
2019-02-02T16:57:14.462Z,98265.78
2019-02-02T17:01:18.737Z,98262.52
2019-02-02T17:05:23.087Z,98276.77
2019-02-02T17:09:27.396Z,98279.59
2019-02-02T17:13:31.643Z,98282.91
2019-02-02T17:17:35.893Z,98296.10
2019-02-02T17:21:40.474Z,98312.52
2019-02-02T17:25:44.859Z,98313.25
2019-02-02T17:29:49.217Z,98326.53
2019-02-02T17:33:53.684Z,98330.55
2019-02-02T17:37:57.952Z,98333.72
2019-02-02T17:42:03.937Z,98339.08
2019-02-02T17:46:08.218Z,98340.08
2019-02-02T17:50:14.893Z,98352.45
2019-02-02T17:54:19.272Z,98362.93
2019-02-02T17:58:23.585Z,98361.16
2019-02-02T18:02:27.886Z,98360.19
2019-02-02T18:06:32.199Z,98373.77
2019-02-02T18:10:36.497Z,98392.68
2019-02-02T18:14:40.812Z,98383.89
2019-02-02T18:18:45.076Z,98381.27
2019-02-02T18:22:49.434Z,98378.72
2019-02-02T18:26:53.751Z,98384.17
2019-02-02T18:30:58.063Z,98387.01
2019-02-02T18:35:02.463Z,98388.40
2019-02-02T18:39:09.164Z,98382.86
2019-02-02T18:43:13.459Z,98390.50
2019-02-02T18:47:17.715Z,98395.88
2019-02-02T18:51:22.071Z,98399.04
2019-02-02T18:55:29.132Z,98399.16
2019-02-02T18:59:36.623Z,98399.70
2019-02-02T19:03:44.062Z,98396.00
2019-02-02T19:07:48.791Z,98394.13
2019-02-02T19:11:53.156Z,98375.42
2019-02-02T19:15:57.417Z,98379.85
2019-02-02T19:20:01.663Z,98384.69
2019-02-02T19:24:09.117Z,98379.45
2019-02-02T19:28:12.364Z,98389.23
2019-02-02T19:32:16.683Z,98375.28
2019-02-02T19:36:20.981Z,98382.84
2019-02-02T19:40:25.352Z,98382.06
2019-02-02T19:44:29.658Z,98380.78
2019-02-02T19:48:34.046Z,98397.48
2019-02-02T19:52:40.490Z,98394.07
2019-02-02T19:56:44.696Z,98388.58
2019-02-02T20:00:49.049Z,98383.41
2019-02-02T20:04:54.706Z,98396.08
2019-02-02T20:08:59.027Z,98399.97
2019-02-02T20:13:03.275Z,98402.95
2019-02-02T20:17:07.624Z,98405.09
2019-02-02T20:21:11.928Z,98403.73
2019-02-02T20:25:16.294Z,98410.70
2019-02-02T20:29:20.520Z,98409.82
2019-02-02T20:33:24.881Z,98405.88
2019-02-02T20:37:29.159Z,98416.78
2019-02-02T20:41:33.485Z,98414.59
2019-02-02T20:45:37.774Z,98413.75
2019-02-02T20:49:42.052Z,98415.53
2019-02-02T20:53:46.716Z,98426.95
2019-02-02T20:57:51.132Z,98437.52
2019-02-02T21:01:55.448Z,98436.72
2019-02-02T21:05:59.736Z,98442.92
2019-02-02T21:10:04.013Z,98437.29
2019-02-02T21:14:08.407Z,98425.13
2019-02-02T21:18:12.718Z,98427.77
2019-02-02T21:22:16.992Z,98430.00
2019-02-02T21:26:21.246Z,98429.64
2019-02-02T21:30:27.850Z,98432.34
2019-02-02T21:34:32.133Z,98434.11
2019-02-02T21:38:36.404Z,98435.02
2019-02-02T21:42:40.899Z,98440.72
2019-02-02T21:46:45.274Z,98435.44
2019-02-02T21:50:49.467Z,98435.84
2019-02-02T21:54:53.818Z,98431.48
2019-02-02T21:58:58.593Z,98431.48
2019-02-02T22:03:02.940Z,98427.17
2019-02-02T22:07:07.264Z,98427.19
2019-02-02T22:11:11.827Z,98425.47
2019-02-02T22:15:18.641Z,98435.50
2019-02-02T22:19:23.725Z,98423.72
2019-02-02T22:23:28.067Z,98426.81
2019-02-02T22:27:32.342Z,98430.32
2019-02-02T22:31:36.978Z,98432.55
2019-02-02T22:35:41.259Z,98441.25
2019-02-02T22:39:45.480Z,98447.81
2019-02-02T22:43:49.777Z,98436.11
2019-02-02T22:47:54.419Z,98433.09
2019-02-02T22:52:00.007Z,98428.37
2019-02-02T22:56:04.648Z,98424.92
2019-02-02T23:00:29.995Z,98440.70
2019-02-02T23:05:20.809Z,98431.55
2019-02-02T23:10:01.919Z,98432.47
2019-02-02T23:14:50.303Z,98446.89
2019-02-02T23:18:54.672Z,98436.88
2019-02-02T23:22:58.995Z,98446.05
2019-02-02T23:27:03.300Z,98430.80
2019-02-02T23:31:07.603Z,98419.02
2019-02-02T23:35:12.392Z,98431.28
2019-02-02T23:39:16.682Z,98435.19
2019-02-02T23:43:20.971Z,98421.64
2019-02-02T23:47:25.232Z,98426.41
2019-02-02T23:51:29.492Z,98424.66
2019-02-02T23:55:33.801Z,98421.66
2019-02-02T23:59:38.111Z,98425.65
